Time;durP1;ratioP1;P1;durP2;ratioP2;P2;SDS_P1;SDS_P2;PMS_P1;PMS_P2;Temp;Humidity;BMP_temperature;BMP_pressure;BME280_temperature;BME280_humidity;BME280_pressure;Samples;Min_cycle;Max_cycle;Signal;HPM_P1;HPM_P2
2022/08/24 00:01:57;;;;;;;6.20;4.30;;;;;;;21.89;69.59;100442.84;105104;1282;25212;-76
2022/08/24 00:04:24;;;;;;;6.80;3.40;;;;;;;21.86;69.83;100443.34;104448;1287;22544;-73
2022/08/24 00:06:51;;;;;;;8.10;4.20;;;;;;;21.88;69.77;100447.01;104535;1287;24315;-75
2022/08/24 00:09:17;;;;;;;6.50;4.40;;;;;;;21.91;69.73;100444.14;104961;1284;22617;-69
2022/08/24 00:11:44;;;;;;;7.50;4.40;;;;;;;21.89;69.58;100448.17;104877;1285;22569;-71
2022/08/24 00:14:10;;;;;;;6.80;4.10;;;;;;;21.88;69.80;100446.28;104933;1284;25388;-69
2022/08/24 00:16:37;;;;;;;8.90;4.20;;;;;;;21.85;69.60;100450.02;104854;1284;22674;-73
2022/08/24 00:19:04;;;;;;;8.50;4.30;;;;;;;21.86;69.80;100456.64;105072;1284;25336;-71
2022/08/24 00:21:30;;;;;;;8.90;4.00;;;;;;;21.88;69.73;100450.97;104765;1287;25286;-70
2022/08/24 00:23:57;;;;;;;6.80;4.10;;;;;;;21.88;69.67;100451.48;105368;1279;23940;-79
2022/08/24 00:26:26;;;;;;;5.70;4.40;;;;;;;21.89;69.69;100448.73;105671;1279;22567;-72
2022/08/24 00:28:56;;;;;;;9.40;4.40;;;;;;;21.92;69.59;100449.45;105610;1279;25344;-72
2022/08/24 00:31:22;;;;;;;5.10;4.30;;;;;;;21.91;69.56;100449.89;105700;1281;24231;-75
2022/08/24 00:33:49;;;;;;;7.30;4.00;;;;;;;21.88;69.66;100444.63;105776;1278;22717;-73
2022/08/24 00:36:15;;;;;;;8.90;4.40;;;;;;;21.88;69.63;100448.42;105742;1278;22576;-72
2022/08/24 00:38:41;;;;;;;10.20;4.80;;;;;;;21.87;69.58;100446.55;105785;1278;22585;-71
2022/08/24 00:41:08;;;;;;;7.40;4.50;;;;;;;21.81;69.40;100439.66;105616;1278;24359;-72
2022/08/24 00:43:34;;;;;;;6.60;3.80;;;;;;;21.79;69.69;100444.84;105749;1278;22644;-70
2022/08/24 00:46:06;;;;;;;8.90;4.10;;;;;;;21.76;69.53;100444.03;105795;1278;22758;-80
2022/08/24 00:48:38;;;;;;;7.80;4.60;;;;;;;21.75;69.59;100443.90;105673;1278;24230;-74
2022/08/24 00:51:13;;;;;;;7.50;4.60;;;;;;;21.74;69.69;100449.89;105951;1278;22582;-72
2022/08/24 00:53:44;;;;;;;9.90;4.70;;;;;;;21.72;69.69;100451.95;105699;1279;24300;-74
2022/08/24 00:56:17;;;;;;;10.70;4.50;;;;;;;21.66;69.78;100447.99;105704;1279;25846;-73
2022/08/24 00:58:50;;;;;;;6.40;4.70;;;;;;;21.62;69.99;100446.56;105693;1278;22594;-76
2022/08/24 01:11:01;;;;;;;6.80;4.40;;;;;;;21.47;70.52;100441.51;105761;1278;22633;-74
2022/08/24 01:21:43;;;;;;;7.40;4.80;;;;;;;21.48;70.39;100454.86;106331;1277;22581;-70
2022/08/24 01:24:11;;;;;;;8.20;4.50;;;;;;;21.45;70.58;100454.49;106366;1279;25950;-67
2022/08/24 01:26:49;;;;;;;9.10;4.20;;;;;;;21.41;70.51;100458.27;106208;1277;22550;-73
2022/08/24 01:29:24;;;;;;;7.00;4.80;;;;;;;21.40;70.78;100456.73;105949;1278;22498;-73
2022/08/24 01:31:51;;;;;;;9.10;4.60;;;;;;;21.37;70.72;100456.50;105820;1278;25558;-72
2022/08/24 01:34:18;;;;;;;6.60;3.90;;;;;;;21.38;70.90;100457.01;105813;1278;24309;-72
2022/08/24 01:36:49;;;;;;;7.00;4.60;;;;;;;21.38;70.91;100455.75;105805;1279;24096;-75
2022/08/24 01:39:21;;;;;;;7.40;4.90;;;;;;;21.37;70.98;100455.61;105688;1280;22735;-72
2022/08/24 01:41:48;;;;;;;7.30;4.30;;;;;;;21.34;70.78;100460.27;105725;1278;24340;-72
2022/08/24 01:44:14;;;;;;;8.90;4.40;;;;;;;21.31;70.92;100460.09;105829;1277;24276;-72
2022/08/24 01:46:47;;;;;;;6.20;4.30;;;;;;;21.27;71.00;100466.89;105633;1278;22572;-69
2022/08/24 01:49:15;;;;;;;6.60;4.10;;;;;;;21.25;71.37;100471.67;105483;1281;24256;-70
2022/08/24 01:51:42;;;;;;;7.90;4.30;;;;;;;21.23;71.39;100471.06;105556;1278;25698;-72
2022/08/24 01:54:09;;;;;;;10.70;4.80;;;;;;;21.23;71.39;100472.28;105630;1279;22654;-72
2022/08/24 01:56:36;;;;;;;8.90;4.70;;;;;;;21.23;71.37;100473.16;105689;1281;24993;-68
2022/08/24 01:59:05;;;;;;;7.60;5.50;;;;;;;21.21;71.38;100472.93;105684;1278;25447;-72
2022/08/24 02:01:36;;;;;;;6.80;4.20;;;;;;;21.22;71.56;100474.17;105779;1278;25358;-75
2022/08/24 02:04:05;;;;;;;7.80;3.80;;;;;;;21.18;71.42;100477.95;105445;1281;22598;-79
2022/08/24 02:06:37;;;;;;;8.30;4.30;;;;;;;21.14;71.66;100481.70;105160;1282;22730;-72
2022/08/24 02:09:05;;;;;;;11.70;4.40;;;;;;;21.14;71.75;100483.71;105418;1281;25378;-81
2022/08/24 02:11:32;;;;;;;6.30;4.10;;;;;;;21.10;71.75;100485.68;105472;1281;22588;-74
2022/08/24 02:13:59;;;;;;;8.20;4.20;;;;;;;21.03;71.81;100489.97;105369;1281;22565;-70
2022/08/24 02:16:27;;;;;;;7.00;4.50;;;;;;;21.03;72.05;100492.48;105582;1281;22815;-72
2022/08/24 02:18:53;;;;;;;5.80;4.30;;;;;;;21.01;72.10;100496.90;105246;1282;22678;-71
2022/08/24 02:21:52;;;;;;;8.90;4.10;;;;;;;20.98;72.21;100499.00;105584;1278;25328;-70
2022/08/24 02:24:18;;;;;;;9.00;4.00;;;;;;;20.91;72.22;100500.95;105650;1277;25270;-71
2022/08/24 02:26:44;;;;;;;8.60;4.50;;;;;;;20.87;72.49;100501.33;105212;1278;22864;-70
2022/08/24 02:29:11;;;;;;;8.10;4.30;;;;;;;20.88;72.70;100507.52;105629;1277;23949;-71
2022/08/24 02:31:37;;;;;;;8.10;4.30;;;;;;;20.93;72.82;100507.33;105699;1277;26633;-71
2022/08/24 02:34:05;;;;;;;5.70;4.20;;;;;;;20.94;72.62;100507.48;104997;1287;25282;-69
2022/08/24 02:36:32;;;;;;;8.30;4.60;;;;;;;20.93;72.42;100508.73;104611;1290;22751;-72
2022/08/24 02:38:59;;;;;;;8.80;4.60;;;;;;;20.90;72.42;100505.45;104078;1294;25475;-75
2022/08/24 02:41:26;;;;;;;7.00;4.30;;;;;;;20.89;72.55;100504.41;104331;1290;22575;-70
2022/08/24 02:43:54;;;;;;;7.90;4.80;;;;;;;20.89;72.68;100511.42;104409;1290;25415;-70
2022/08/24 02:46:24;;;;;;;7.30;4.80;;;;;;;20.89;72.66;100508.72;104510;1291;22670;-71
2022/08/24 02:48:51;;;;;;;10.20;4.70;;;;;;;20.86;72.51;100506.55;104066;1293;22574;-68
2022/08/24 02:51:36;;;;;;;7.10;4.10;;;;;;;20.80;72.62;100508.10;104286;1290;22582;-69
2022/08/24 02:54:16;;;;;;;7.50;4.20;;;;;;;20.81;72.67;100501.80;104953;1284;23109;-67
2022/08/24 02:56:43;;;;;;;4.90;4.20;;;;;;;20.76;72.86;100501.14;105257;1281;22704;-67
2022/08/24 02:59:11;;;;;;;5.40;4.70;;;;;;;20.78;72.89;100502.14;105704;1278;22632;-83
2022/08/24 03:01:37;;;;;;;8.30;4.70;;;;;;;20.79;73.05;100498.14;105598;1278;22585;-69
2022/08/24 03:04:04;;;;;;;8.40;5.30;;;;;;;20.74;72.89;100499.80;105401;1281;25846;-70
2022/08/24 03:06:31;;;;;;;8.00;4.60;;;;;;;20.68;73.12;100504.58;105789;1279;25359;-71
2022/08/24 03:08:58;;;;;;;7.60;4.30;;;;;;;20.63;73.27;100506.45;105872;1277;22609;-71
2022/08/24 03:11:25;;;;;;;8.10;4.50;;;;;;;20.60;73.21;100501.59;105660;1278;22578;-73
2022/08/24 03:13:56;;;;;;;6.70;4.60;;;;;;;20.59;73.41;100496.95;105738;1277;24217;-70
2022/08/24 03:16:22;;;;;;;9.80;4.90;;;;;;;20.60;73.46;100490.13;105562;1281;25265;-73
2022/08/24 03:18:50;;;;;;;11.00;4.60;;;;;;;20.63;73.56;100493.55;106034;1284;22524;-79
2022/08/24 03:21:16;;;;;;;6.80;4.10;;;;;;;20.68;73.63;100492.77;106086;1281;23969;-73
2022/08/24 03:23:43;;;;;;;8.50;4.60;;;;;;;20.76;73.64;100493.10;106030;1281;24639;-73
2022/08/24 03:26:10;;;;;;;5.70;4.40;;;;;;;20.79;73.41;100498.48;105795;1281;25454;-71
2022/08/24 03:28:37;;;;;;;8.50;5.00;;;;;;;20.78;73.33;100500.16;105460;1284;22571;-74
2022/08/24 03:31:05;;;;;;;9.00;4.80;;;;;;;20.78;73.53;100502.11;104870;1287;24884;-71
2022/08/24 03:33:31;;;;;;;6.50;4.50;;;;;;;20.80;73.45;100498.10;104815;1288;22565;-75
2022/08/24 03:36:01;;;;;;;7.30;4.60;;;;;;;20.83;73.35;100502.08;105140;1284;24592;-72
2022/08/24 03:38:28;;;;;;;5.80;4.10;;;;;;;20.85;73.45;100501.42;105025;1285;25288;-71
2022/08/24 03:40:55;;;;;;;7.10;4.40;;;;;;;20.89;73.32;100503.01;104963;1284;23955;-71
2022/08/24 03:46:07;;;;;;;9.50;4.80;;;;;;;20.98;73.38;100515.86;104567;1287;23959;-72
2022/08/24 03:48:35;;;;;;;8.60;4.60;;;;;;;21.01;73.32;100519.96;103928;1287;24249;-71
2022/08/24 03:51:02;;;;;;;10.30;5.00;;;;;;;21.05;73.04;100523.91;104507;1287;22588;-69
2022/08/24 03:53:30;;;;;;;6.80;4.90;;;;;;;21.03;72.80;100526.34;104777;1285;22557;-71
2022/08/24 03:55:57;;;;;;;14.40;4.80;;;;;;;21.01;72.80;100528.36;104577;1287;22583;-70
2022/08/24 03:58:23;;;;;;;10.80;5.40;;;;;;;21.00;72.75;100528.80;104786;1287;22564;-71
2022/08/24 04:00:50;;;;;;;6.00;4.90;;;;;;;21.00;72.80;100527.53;104736;1284;24230;-70
2022/08/24 04:03:16;;;;;;;6.60;4.70;;;;;;;20.93;72.63;100530.59;104974;1284;24445;-71
2022/08/24 04:05:43;;;;;;;9.30;5.30;;;;;;;20.88;73.07;100530.05;104431;1288;25500;-72
2022/08/24 04:08:10;;;;;;;8.20;4.80;;;;;;;20.84;73.04;100528.29;104904;1284;23636;-73
2022/08/24 04:10:42;;;;;;;11.20;5.30;;;;;;;20.88;73.19;100529.89;104905;1284;25274;-73
2022/08/24 04:13:08;;;;;;;8.50;5.30;;;;;;;20.91;73.27;100529.05;104963;1285;25391;-70
2022/08/24 04:15:39;;;;;;;12.00;7.00;;;;;;;20.92;73.10;100533.33;105087;1284;25478;-73
2022/08/24 04:18:07;;;;;;;12.60;6.30;;;;;;;20.95;73.18;100532.80;105218;1284;22565;-73
2022/08/24 04:20:42;;;;;;;8.50;5.50;;;;;;;20.96;73.08;100534.17;105180;1284;25294;-73
2022/08/24 04:23:11;;;;;;;9.00;4.50;;;;;;;20.97;73.22;100540.76;104846;1285;22866;-80
2022/08/24 04:25:44;;;;;;;6.60;4.60;;;;;;;20.98;73.16;100538.58;105487;1282;24245;-73
2022/08/24 04:28:11;;;;;;;6.60;5.30;;;;;;;21.01;73.07;100546.10;105496;1281;24276;-75
2022/08/24 04:30:40;;;;;;;12.00;6.40;;;;;;;20.97;72.99;100550.80;105332;1281;22687;-75
2022/08/24 04:33:10;;;;;;;14.20;5.70;;;;;;;20.96;73.09;100550.66;105339;1282;22563;-72
2022/08/24 04:35:42;;;;;;;10.00;6.00;;;;;;;21.00;73.12;100553.15;105641;1281;22559;-72
2022/08/24 04:38:08;;;;;;;11.50;4.70;;;;;;;20.92;72.98;100554.98;105327;1281;22661;-69
2022/08/24 04:40:39;;;;;;;8.10;4.90;;;;;;;20.90;73.03;100556.30;105602;1278;25270;-73
2022/08/24 04:43:07;;;;;;;9.60;5.80;;;;;;;20.93;73.23;100554.73;105278;1284;24271;-71
2022/08/24 04:45:41;;;;;;;8.80;5.50;;;;;;;20.99;73.07;100557.13;105525;1281;22589;-73
2022/08/24 04:48:09;;;;;;;12.30;5.50;;;;;;;21.02;72.94;100561.42;105404;1281;24230;-73
2022/08/24 04:50:38;;;;;;;10.60;5.30;;;;;;;21.04;72.97;100562.63;105521;1281;22614;-74
2022/08/24 04:53:06;;;;;;;9.90;5.00;;;;;;;21.08;72.95;100567.95;105313;1284;22721;-74
2022/08/24 04:55:44;;;;;;;11.90;5.70;;;;;;;21.09;72.72;100569.18;105415;1284;22666;-75
2022/08/24 04:58:13;;;;;;;11.30;5.70;;;;;;;21.09;72.76;100569.36;105326;1284;22537;-76
2022/08/24 05:00:39;;;;;;;10.30;5.90;;;;;;;21.12;72.65;100574.41;105471;1282;25648;-77
2022/08/24 05:03:06;;;;;;;8.70;5.70;;;;;;;21.09;72.87;100578.82;105270;1281;22553;-73
2022/08/24 05:05:33;;;;;;;11.00;6.30;;;;;;;21.14;72.86;100577.16;105388;1281;22543;-73
2022/08/24 05:07:59;;;;;;;10.90;5.10;;;;;;;21.19;72.97;100580.48;105436;1278;23991;-74
2022/08/24 05:10:26;;;;;;;11.50;5.50;;;;;;;21.25;72.65;100578.73;105789;1277;23980;-69
2022/08/24 05:12:59;;;;;;;11.20;5.90;;;;;;;21.30;72.48;100578.69;105534;1277;24317;-70
2022/08/24 05:15:25;;;;;;;7.60;5.80;;;;;;;21.38;72.45;100582.56;105589;1277;24322;-72
2022/08/24 05:17:52;;;;;;;11.20;6.00;;;;;;;21.36;72.20;100580.02;105665;1278;24306;-70
2022/08/24 05:20:19;;;;;;;12.10;6.00;;;;;;;21.31;72.00;100575.24;105761;1277;22862;-76
2022/08/24 05:22:45;;;;;;;10.00;5.30;;;;;;;21.29;72.30;100571.23;105654;1277;25456;-71
2022/08/24 05:25:11;;;;;;;10.70;5.40;;;;;;;21.30;72.33;100567.02;105557;1279;22566;-72
2022/08/24 05:27:38;;;;;;;11.60;6.00;;;;;;;21.32;72.29;100562.98;105844;1277;22555;-74
2022/08/24 05:30:05;;;;;;;9.80;6.00;;;;;;;21.39;72.17;100566.91;105593;1277;22573;-73
2022/08/24 05:32:31;;;;;;;10.50;5.50;;;;;;;21.45;72.04;100568.61;105753;1277;24299;-72
2022/08/24 05:35:00;;;;;;;10.80;5.40;;;;;;;21.50;72.04;100568.34;105611;1277;25265;-72
2022/08/24 05:37:26;;;;;;;10.90;5.90;;;;;;;21.55;72.12;100568.64;105744;1277;22541;-72
2022/08/24 05:40:19;;;;;;;10.00;5.30;;;;;;;21.61;71.85;100573.71;105837;1276;24250;-72
2022/08/24 05:42:52;;;;;;;9.90;5.20;;;;;;;21.68;71.77;100574.22;105659;1276;22517;-73
2022/08/24 05:45:18;;;;;;;10.00;5.60;;;;;;;21.71;71.47;100570.84;105438;1279;25336;-72
2022/08/24 05:47:45;;;;;;;11.90;5.50;;;;;;;21.74;71.34;100567.98;105688;1277;22576;-73
2022/08/24 05:50:27;;;;;;;7.80;5.30;;;;;;;21.81;71.53;100564.48;105777;1277;22642;-71
2022/08/24 05:52:53;;;;;;;13.50;5.80;;;;;;;21.84;71.46;100565.86;105777;1278;25575;-74
2022/08/24 05:55:19;;;;;;;11.70;5.90;;;;;;;21.86;71.25;100563.99;105724;1279;22712;-74
2022/08/24 05:57:45;;;;;;;8.40;5.40;;;;;;;21.91;71.47;100566.58;105903;1276;24391;-73
2022/08/24 06:00:16;;;;;;;16.80;6.00;;;;;;;21.96;71.42;100562.39;105680;1276;22569;-73
2022/08/24 06:02:44;;;;;;;9.00;5.30;;;;;;;21.97;71.28;100557.83;105278;1283;22550;-73
2022/08/24 06:05:11;;;;;;;9.90;4.90;;;;;;;21.99;71.00;100553.25;105370;1281;24279;-74
2022/08/24 06:07:37;;;;;;;15.50;6.50;;;;;;;22.07;70.92;100562.90;105667;1281;24241;-73
2022/08/24 06:10:04;;;;;;;10.80;5.80;;;;;;;22.13;70.98;100563.61;105643;1281;25026;-72
2022/08/24 06:12:50;;;;;;;14.50;5.80;;;;;;;22.23;70.96;100570.40;105379;1281;25334;-70
2022/08/24 06:15:16;;;;;;;12.90;6.50;;;;;;;22.29;70.80;100562.58;104964;1287;22550;-74
2022/08/24 06:17:43;;;;;;;11.60;5.40;;;;;;;22.34;70.42;100555.48;105066;1285;22575;-74
2022/08/24 06:20:09;;;;;;;10.80;5.50;;;;;;;22.35;70.11;100553.09;104867;1282;25274;-72
2022/08/24 06:22:36;;;;;;;14.10;5.70;;;;;;;22.40;70.27;100553.85;105377;1282;26754;-73
2022/08/24 06:27:47;;;;;;;8.70;5.80;;;;;;;22.52;70.11;100551.77;105016;1287;22678;-73
2022/08/24 06:30:14;;;;;;;11.10;5.50;;;;;;;22.56;69.78;100557.27;104933;1287;22823;-76
2022/08/24 06:33:01;;;;;;;9.50;5.40;;;;;;;22.58;69.56;100556.11;105122;1281;22798;-76
2022/08/24 06:35:35;;;;;;;10.00;5.60;;;;;;;22.60;69.53;100554.05;105429;1281;22666;-70
2022/08/24 06:38:01;;;;;;;14.30;5.20;;;;;;;22.62;69.58;100557.34;105098;1282;22663;-71
2022/08/24 06:40:28;;;;;;;14.00;5.70;;;;;;;22.69;69.51;100554.62;105142;1282;24205;-77
2022/08/24 06:42:54;;;;;;;15.50;5.90;;;;;;;22.78;69.33;100553.57;105388;1281;22702;-73
2022/08/24 06:45:35;;;;;;;9.00;5.80;;;;;;;22.85;69.31;100554.60;105553;1276;22566;-73
2022/08/24 06:48:01;;;;;;;14.00;6.20;;;;;;;22.89;69.18;100558.86;105677;1276;22550;-73
2022/08/24 06:50:27;;;;;;;13.80;5.30;;;;;;;22.93;69.16;100563.67;105777;1276;22635;-72
2022/08/24 06:52:54;;;;;;;10.90;5.80;;;;;;;22.98;68.95;100566.57;105748;1276;25274;-72
2022/08/24 06:55:22;;;;;;;11.00;5.10;;;;;;;23.04;69.07;100577.19;105603;1276;25402;-71
2022/08/24 06:57:49;;;;;;;14.30;5.30;;;;;;;23.09;68.75;100580.69;105684;1277;24424;-71
2022/08/24 07:00:19;;;;;;;13.00;5.40;;;;;;;23.18;68.69;100580.57;105871;1276;24241;-72
2022/08/24 07:02:46;;;;;;;10.40;5.20;;;;;;;23.25;68.63;100584.64;105688;1276;22566;-72
2022/08/24 07:05:13;;;;;;;12.30;5.60;;;;;;;23.27;68.52;100585.54;105737;1276;22541;-79
2022/08/24 07:08:08;;;;;;;9.00;5.00;;;;;;;23.35;68.29;100592.64;104637;1276;1518179;-77
2022/08/24 07:10:35;;;;;;;12.00;6.30;;;;;;;23.39;68.37;100594.24;105916;1276;22579;-73
2022/08/24 07:13:02;;;;;;;12.30;5.60;;;;;;;23.46;68.04;100597.96;106249;1277;22857;-71
2022/08/24 07:15:29;;;;;;;8.70;4.90;;;;;;;23.45;67.97;100589.70;106073;1276;25220;-75
2022/08/24 07:18:08;;;;;;;9.60;4.80;;;;;;;23.56;67.73;100594.35;106076;1276;22510;-70
2022/08/24 07:20:37;;;;;;;18.60;5.90;;;;;;;23.66;67.68;100598.04;106525;1276;25298;-72
2022/08/24 07:23:10;;;;;;;10.50;4.70;;;;;;;23.75;67.58;100598.35;106479;1276;22904;-72
2022/08/24 07:25:37;;;;;;;10.40;5.40;;;;;;;23.84;67.69;100601.58;106782;1276;22535;-73
2022/08/24 07:28:03;;;;;;;15.50;6.00;;;;;;;23.93;67.45;100605.52;106246;1277;22484;-73
2022/08/24 07:30:37;;;;;;;21.10;6.70;;;;;;;24.01;66.95;100609.20;105885;1276;25387;-73
2022/08/24 07:33:04;;;;;;;14.80;5.90;;;;;;;24.10;66.88;100612.06;105921;1277;25290;-73
2022/08/24 07:35:37;;;;;;;16.10;7.10;;;;;;;24.17;66.69;100616.14;105957;1276;22681;-71
2022/08/24 07:38:07;;;;;;;14.10;6.20;;;;;;;24.24;66.69;100616.39;105806;1277;24403;-73
2022/08/24 07:40:34;;;;;;;12.90;6.50;;;;;;;24.33;66.49;100620.02;105743;1276;22581;-75
2022/08/24 07:43:20;;;;;;;13.20;6.20;;;;;;;24.40;65.97;100628.95;105712;1277;22560;-76
2022/08/24 07:45:48;;;;;;;14.90;6.20;;;;;;;24.42;65.79;100629.35;105695;1276;23778;-73
2022/08/24 07:48:14;;;;;;;11.00;5.40;;;;;;;24.46;65.61;100624.74;105784;1276;24302;-69
2022/08/24 07:50:44;;;;;;;13.30;5.60;;;;;;;24.56;65.47;100624.15;105818;1277;25271;-73
2022/08/24 07:53:10;;;;;;;12.30;6.00;;;;;;;24.67;65.28;100627.55;105731;1276;22716;-73
2022/08/24 07:55:42;;;;;;;13.00;6.00;;;;;;;24.76;64.99;100622.48;105774;1276;22764;-72
2022/08/24 07:58:12;;;;;;;15.10;6.20;;;;;;;24.81;64.54;100622.56;105586;1276;24229;-73
2022/08/24 08:00:38;;;;;;;17.10;8.70;;;;;;;24.85;64.49;100621.34;105897;1276;25254;-74
2022/08/24 08:03:05;;;;;;;17.80;6.90;;;;;;;24.90;64.07;100623.61;105736;1277;22563;-74
2022/08/24 08:05:37;;;;;;;20.40;6.40;;;;;;;24.95;63.87;100621.24;105829;1276;25363;-73
2022/08/24 08:08:03;;;;;;;18.90;6.70;;;;;;;25.02;63.82;100620.69;105745;1277;25392;-73
2022/08/24 08:10:32;;;;;;;21.60;6.50;;;;;;;25.04;63.41;100620.36;105795;1277;24334;-74
2022/08/24 08:12:58;;;;;;;17.60;6.50;;;;;;;25.04;63.03;100614.58;106103;1276;25454;-74
2022/08/24 08:15:25;;;;;;;19.80;6.70;;;;;;;25.00;63.07;100619.17;105807;1277;26523;-74
2022/08/24 08:17:58;;;;;;;24.40;6.40;;;;;;;24.98;62.94;100616.04;105896;1276;24558;-72
2022/08/24 08:20:24;;;;;;;20.40;6.90;;;;;;;24.98;62.86;100612.95;105990;1276;22566;-75
2022/08/24 08:25:37;;;;;;;19.70;6.60;;;;;;;25.01;63.14;100621.63;105887;1276;24322;-70
2022/08/24 08:28:07;;;;;;;24.00;6.60;;;;;;;25.12;62.96;100622.91;105897;1276;22636;-69
2022/08/24 08:30:52;;;;;;;26.20;7.80;;;;;;;25.28;62.89;100623.81;105945;1276;22556;-73
2022/08/24 08:33:18;;;;;;;22.40;5.90;;;;;;;25.49;62.96;100621.65;105776;1276;22841;-74
2022/08/24 08:35:45;;;;;;;15.10;5.80;;;;;;;25.68;62.84;100621.27;105720;1278;24238;-71
2022/08/24 08:38:12;;;;;;;21.40;6.10;;;;;;;25.85;62.65;100623.91;105979;1276;24245;-72
2022/08/24 08:40:44;;;;;;;24.00;6.60;;;;;;;25.98;62.33;100629.71;105800;1276;24302;-76
2022/08/24 08:43:35;;;;;;;18.90;6.00;;;;;;;26.10;61.72;100634.45;105964;1276;22715;-73
2022/08/24 08:46:23;;;;;;;17.20;5.30;;;;;;;26.16;61.05;100638.73;105903;1276;25348;-73
2022/08/24 08:50:00;;;;;;;16.00;5.90;;;;;;;26.28;60.89;100640.56;106004;1276;24924;-74
2022/08/24 08:52:52;;;;;;;24.70;6.30;;;;;;;26.37;60.02;100638.70;105851;1277;22541;-75
2022/08/24 08:55:44;;;;;;;20.20;5.90;;;;;;;26.50;59.91;100641.63;105951;1276;24231;-74
2022/08/24 08:58:27;;;;;;;21.30;5.80;;;;;;;26.72;59.52;100647.59;105995;1276;22550;-73
2022/08/24 09:01:08;;;;;;;23.80;5.80;;;;;;;26.89;59.37;100647.21;106446;1277;22587;-72
2022/08/24 09:04:09;;;;;;;19.60;6.90;;;;;;;27.11;59.56;100645.29;106665;1276;22489;-71
2022/08/24 09:07:26;;;;;;;22.10;7.40;;;;;;;27.36;58.96;100643.97;106571;1276;22563;-70
2022/08/24 09:10:32;;;;;;;27.10;7.60;;;;;;;27.45;58.81;100645.98;106106;1278;22571;-73
2022/08/24 09:13:29;;;;;;;36.30;8.70;;;;;;;27.60;58.45;100645.42;105996;1276;25479;-79
2022/08/24 09:16:07;;;;;;;34.90;7.90;;;;;;;27.64;58.50;100648.67;106110;1277;22573;-70
2022/08/24 09:18:53;;;;;;;34.10;7.40;;;;;;;27.71;58.62;100651.14;106122;1276;22560;-71
2022/08/24 09:21:27;;;;;;;25.80;8.70;;;;;;;27.78;58.83;100648.41;106299;1276;22704;-71
2022/08/24 09:24:09;;;;;;;25.70;7.70;;;;;;;27.81;58.35;100644.55;106262;1276;22559;-74
2022/08/24 09:26:49;;;;;;;26.50;7.70;;;;;;;27.79;58.09;100646.13;106041;1276;22665;-74
2022/08/24 09:29:42;;;;;;;28.20;8.30;;;;;;;27.80;58.11;100642.63;105822;1276;25323;-74
2022/08/24 09:32:23;;;;;;;26.40;8.30;;;;;;;27.82;57.95;100639.91;105959;1276;23429;-79
2022/08/24 09:34:51;;;;;;;22.60;9.00;;;;;;;27.86;58.29;100635.10;105912;1276;22575;-73
2022/08/24 09:37:49;;;;;;;29.20;9.00;;;;;;;27.90;57.92;100634.27;105850;1276;22694;-74
2022/08/24 09:40:50;;;;;;;23.40;7.70;;;;;;;27.97;57.61;100637.68;105753;1276;22625;-73
2022/08/24 09:43:35;;;;;;;28.00;7.90;;;;;;;28.04;57.68;100641.48;105982;1276;22978;-72
2022/08/24 09:46:11;;;;;;;33.00;8.70;;;;;;;28.13;57.62;100636.95;105891;1276;25381;-69
2022/08/24 09:49:06;;;;;;;28.80;7.90;;;;;;;28.22;57.38;100637.20;106000;1276;25265;-73
2022/08/24 09:51:53;;;;;;;27.60;8.70;;;;;;;28.25;57.03;100638.61;106040;1276;25268;-75
2022/08/24 09:54:35;;;;;;;23.60;7.90;;;;;;;28.18;57.02;100638.71;105955;1276;25253;-73
2022/08/24 09:57:47;;;;;;;22.80;8.30;;;;;;;28.18;56.95;100642.31;105994;1276;24275;-77
2022/08/24 10:00:45;;;;;;;26.20;8.30;;;;;;;28.15;56.70;100647.52;105963;1276;25307;-74
2022/08/24 10:03:26;;;;;;;35.60;8.60;;;;;;;28.15;56.82;100652.52;105781;1276;23004;-75
2022/08/24 10:06:20;;;;;;;28.30;7.80;;;;;;;28.19;56.86;100650.95;105727;1276;25405;-73
2022/08/24 10:09:20;;;;;;;34.00;8.60;;;;;;;28.09;56.37;100645.96;105808;1276;22858;-73
2022/08/24 10:12:03;;;;;;;21.40;7.10;;;;;;;28.11;56.59;100642.95;105832;1277;25463;-70
2022/08/24 10:14:39;;;;;;;26.70;7.20;;;;;;;28.23;56.57;100637.08;105701;1277;25276;-73
2022/08/24 10:17:24;;;;;;;;;;;;;;;28.44;56.07;100645.42;106016;1276;22532;-75
2022/08/24 10:20:07;;;;;;;25.00;6.90;;;;;;;28.57;55.89;100640.93;105878;1276;24258;-73
2022/08/24 10:22:52;;;;;;;33.10;8.40;;;;;;;28.78;55.34;100643.41;105874;1276;22486;-74
2022/08/24 10:25:30;;;;;;;32.30;8.60;;;;;;;28.84;55.07;100644.54;105805;1276;22555;-72
2022/08/24 10:28:03;;;;;;;26.70;7.50;;;;;;;28.91;54.45;100645.42;105902;1276;26745;-74
2022/08/24 10:30:51;;;;;;;25.50;7.00;;;;;;;29.01;54.71;100646.65;105844;1276;25236;-70
2022/08/24 10:33:24;;;;;;;21.00;7.00;;;;;;;29.11;54.96;100644.52;105828;1276;22873;-70
2022/08/24 10:36:09;;;;;;;22.30;6.70;;;;;;;29.31;54.88;100639.05;105844;1276;23361;-72
2022/08/24 10:41:53;;;;;;;22.60;6.60;;;;;;;29.59;54.20;100642.52;105873;1276;22654;-72
2022/08/24 10:44:42;;;;;;;24.50;8.10;;;;;;;29.65;54.49;100640.59;105819;1276;26507;-71
2022/08/24 10:47:20;;;;;;;27.40;6.40;;;;;;;29.92;54.15;100633.73;106107;1276;26643;-72
2022/08/24 10:50:08;;;;;;;22.50;6.40;;;;;;;30.06;53.86;100630.64;105678;1276;25532;-73
2022/08/24 10:52:51;;;;;;;21.80;6.00;;;;;;;30.30;53.56;100634.46;105939;1276;24231;-75
2022/08/24 10:55:27;;;;;;;22.40;7.20;;;;;;;30.55;52.97;100635.31;105332;1284;25253;-74
2022/08/24 10:58:19;;;;;;;26.00;6.20;;;;;;;30.57;52.20;100631.86;105303;1282;22557;-73
2022/08/24 11:00:45;;;;;;;22.60;6.10;;;;;;;30.67;52.22;100632.93;105335;1284;23982;-74
2022/08/24 11:03:17;;;;;;;27.00;6.30;;;;;;;30.82;52.30;100634.86;105442;1284;25305;-74
2022/08/24 11:05:50;;;;;;;23.20;6.00;;;;;;;31.02;51.59;100632.20;105211;1285;22987;-74
2022/08/24 11:08:24;;;;;;;20.00;5.90;;;;;;;31.21;50.95;100629.88;105376;1284;22837;-74
2022/08/24 11:11:11;;;;;;;26.40;7.40;;;;;;;31.42;50.20;100633.05;105666;1284;22877;-74
2022/08/24 11:13:59;;;;;;;24.20;6.20;;;;;;;31.47;49.58;100627.70;105622;1278;22496;-74
2022/08/24 11:16:46;;;;;;;35.50;7.70;;;;;;;31.51;49.32;100628.06;106591;1276;22573;-71
2022/08/24 11:19:30;;;;;;;30.80;7.00;;;;;;;31.67;48.84;100632.38;106363;1276;22546;-75
2022/08/24 11:22:00;;;;;;;32.10;7.00;;;;;;;31.76;48.45;100630.80;106169;1276;22560;-73
2022/08/24 11:24:42;;;;;;;26.20;6.50;;;;;;;31.76;48.01;100631.48;105938;1276;22717;-74
2022/08/24 11:27:14;;;;;;;39.00;7.40;;;;;;;31.71;47.53;100633.39;105760;1276;22553;-74
2022/08/24 11:29:56;;;;;;;38.90;6.90;;;;;;;31.51;47.11;100628.03;105725;1276;22630;-73
2022/08/24 11:32:38;;;;;;;29.80;6.40;;;;;;;31.22;47.52;100629.59;105906;1275;24420;-75
2022/08/24 11:35:22;;;;;;;28.30;6.30;;;;;;;31.38;48.18;100633.08;105835;1276;23586;-73
2022/08/24 11:37:51;;;;;;;31.40;6.50;;;;;;;31.63;47.94;100630.58;105759;1276;24248;-73
2022/08/24 11:40:21;;;;;;;42.20;7.50;;;;;;;31.77;47.44;100630.13;105983;1276;25258;-73
2022/08/24 11:42:50;;;;;;;30.50;6.40;;;;;;;31.80;47.07;100630.21;105718;1276;22553;-73
2022/08/24 11:45:33;;;;;;;28.80;6.10;;;;;;;31.79;46.94;100629.38;105739;1276;22547;-73
2022/08/24 11:48:30;;;;;;;43.30;7.30;;;;;;;31.84;46.61;100632.22;105809;1276;23430;-73
2022/08/24 11:51:02;;;;;;;25.60;6.40;;;;;;;31.77;46.42;100630.71;105864;1276;22545;-73
2022/08/24 11:53:49;;;;;;;38.90;6.70;;;;;;;31.72;46.65;100633.31;105700;1277;25401;-74
2022/08/24 11:56:27;;;;;;;34.10;7.40;;;;;;;31.59;46.77;100635.29;105948;1276;22575;-74
2022/08/24 11:59:06;;;;;;;30.10;6.40;;;;;;;31.39;46.78;100639.65;105860;1276;22538;-86
2022/08/24 12:01:53;;;;;;;26.00;6.90;;;;;;;31.23;46.79;100642.23;105564;1276;24382;-74
2022/08/24 12:04:44;;;;;;;29.30;6.70;;;;;;;30.96;46.77;100639.78;105659;1276;25285;-73
2022/08/24 12:07:34;;;;;;;29.60;7.60;;;;;;;30.64;47.35;100632.89;105889;1276;25455;-74
2022/08/24 12:10:33;;;;;;;28.80;6.70;;;;;;;30.37;47.51;100634.65;105754;1276;22739;-73